createdAt,value
2023-04-09T00:00:10.229Z,29.42
2023-04-09T00:01:31.870Z,30.00
2023-04-09T00:02:53.021Z,30.67
2023-04-09T00:04:14.159Z,35.88
2023-04-09T00:05:40.200Z,30.90
2023-04-09T00:07:01.073Z,32.88
2023-04-09T00:08:21.540Z,32.03
2023-04-09T00:09:42.339Z,29.95
2023-04-09T00:11:03.307Z,30.98
2023-04-09T00:12:23.938Z,30.73
2023-04-09T00:13:44.614Z,31.80
2023-04-09T00:15:08.404Z,31.65
2023-04-09T00:16:30.252Z,30.80
2023-04-09T00:17:51.536Z,32.33
2023-04-09T00:19:12.543Z,31.75
2023-04-09T00:20:33.321Z,30.30
2023-04-09T00:21:55.479Z,30.88
2023-04-09T00:23:16.557Z,31.50
2023-04-09T00:24:37.272Z,32.20
2023-04-09T00:25:57.831Z,29.63
2023-04-09T00:27:18.641Z,31.75
2023-04-09T00:28:39.559Z,30.35
2023-04-09T00:30:00.473Z,31.27
2023-04-09T00:31:21.248Z,32.13
2023-04-09T00:32:42.048Z,33.08
2023-04-09T00:34:02.784Z,34.03
2023-04-09T00:35:23.655Z,30.83
2023-04-09T00:36:44.074Z,32.97
2023-04-09T00:38:11.392Z,32.35
2023-04-09T00:39:32.495Z,33.50
2023-04-09T00:40:53.452Z,32.95
2023-04-09T00:42:14.257Z,32.88
2023-04-09T00:43:35.128Z,33.40
2023-04-09T00:44:56.058Z,35.72
2023-04-09T00:46:18.059Z,33.15
2023-04-09T00:47:39.025Z,32.90
2023-04-09T00:48:59.849Z,34.00
2023-04-09T00:50:20.551Z,36.70
2023-04-09T00:51:41.209Z,36.22
2023-04-09T00:53:01.997Z,33.47
2023-04-09T00:54:23.865Z,35.65
2023-04-09T00:55:45.423Z,34.80
2023-04-09T00:58:26.538Z,34.20
2023-04-09T00:59:47.052Z,34.83
2023-04-09T01:01:07.904Z,34.25
2023-04-09T01:02:28.820Z,34.53
2023-04-09T01:03:49.725Z,34.05
2023-04-09T01:05:10.967Z,35.13
2023-04-09T01:06:39.139Z,35.28
2023-04-09T01:08:04.159Z,35.42
2023-04-09T01:09:30.672Z,36.55
2023-04-09T01:10:56.147Z,35.13
2023-04-09T01:12:26.351Z,35.03
2023-04-09T01:13:51.170Z,34.50
2023-04-09T01:15:15.383Z,35.95
2023-04-09T01:16:37.356Z,35.85
2023-04-09T01:18:05.636Z,38.42
2023-04-09T01:19:38.903Z,38.50
2023-04-09T01:21:02.925Z,36.90
2023-04-09T01:22:31.848Z,35.90
2023-04-09T01:23:59.692Z,37.85
2023-04-09T01:25:37.736Z,35.30
2023-04-09T01:27:03.864Z,36.38
2023-04-09T01:28:29.960Z,38.47
2023-04-09T01:29:52.206Z,37.72
2023-04-09T01:31:15.177Z,36.13
2023-04-09T01:32:37.447Z,37.53
2023-04-09T01:33:58.829Z,38.83
2023-04-09T01:35:20.294Z,37.25
2023-04-09T01:38:02.160Z,37.03
2023-04-09T01:39:23.045Z,36.72
2023-04-09T01:40:44.169Z,38.53
2023-04-09T01:42:06.108Z,35.65
2023-04-09T01:43:28.857Z,35.70
2023-04-09T01:44:49.931Z,36.67
2023-04-09T01:46:11.335Z,35.72
2023-04-09T01:47:32.264Z,36.20
2023-04-09T01:48:53.114Z,36.80
2023-04-09T01:50:14.393Z,38.35
2023-04-09T01:51:35.239Z,35.22
2023-04-09T01:52:55.743Z,33.17
2023-04-09T01:54:16.825Z,35.28
2023-04-09T01:55:37.573Z,35.72
2023-04-09T01:56:58.378Z,35.47
2023-04-09T01:58:19.246Z,33.90
2023-04-09T01:59:41.497Z,35.33
2023-04-09T02:01:06.685Z,35.10
2023-04-09T02:02:36.232Z,36.42
2023-04-09T02:03:58.917Z,34.72
2023-04-09T02:05:20.987Z,32.65
2023-04-09T02:06:47.372Z,36.22
2023-04-09T02:08:08.234Z,36.10
2023-04-09T02:09:30.885Z,34.10
2023-04-09T02:10:56.830Z,33.58
2023-04-09T02:12:18.391Z,34.13
2023-04-09T02:13:40.523Z,37.28
2023-04-09T02:15:03.711Z,37.00
2023-04-09T02:16:24.698Z,34.45
2023-04-09T02:17:45.736Z,36.08
2023-04-09T02:19:06.258Z,33.50
2023-04-09T02:20:27.336Z,32.83
2023-04-09T02:21:47.904Z,34.10
2023-04-09T02:23:08.602Z,33.78
2023-04-09T02:24:29.731Z,35.90
2023-04-09T02:25:51.101Z,36.13
2023-04-09T02:27:12.256Z,38.90
2023-04-09T02:28:32.842Z,36.30
2023-04-09T02:29:54.108Z,35.97
2023-04-09T02:31:17.005Z,38.00
2023-04-09T02:32:37.898Z,37.40
2023-04-09T02:33:58.674Z,35.92
2023-04-09T02:35:19.498Z,38.22
2023-04-09T02:36:40.406Z,37.70
2023-04-09T02:38:02.031Z,35.83
2023-04-09T02:40:43.595Z,36.58
2023-04-09T02:42:04.685Z,37.17
2023-04-09T02:43:25.384Z,38.10
2023-04-09T02:44:46.091Z,38.67
2023-04-09T02:46:07.588Z,36.70
2023-04-09T02:47:29.534Z,39.28
2023-04-09T02:48:50.762Z,36.78
2023-04-09T02:50:11.648Z,37.17
2023-04-09T02:51:34.142Z,36.28
2023-04-09T02:52:54.665Z,37.60
2023-04-09T02:54:15.304Z,36.58
2023-04-09T02:55:36.048Z,37.95
2023-04-09T02:56:56.816Z,37.60
2023-04-09T02:58:17.585Z,36.07
2023-04-09T02:59:38.494Z,35.85
2023-04-09T03:00:59.286Z,36.92
2023-04-09T03:02:20.296Z,36.10
2023-04-09T03:03:42.693Z,35.75
2023-04-09T03:05:03.682Z,36.38
2023-04-09T03:06:24.876Z,38.08
2023-04-09T03:07:45.551Z,35.67
2023-04-09T03:09:06.707Z,38.35
2023-04-09T03:10:27.154Z,36.97
2023-04-09T03:11:48.030Z,36.05
2023-04-09T03:13:08.860Z,36.85
2023-04-09T03:14:29.577Z,38.38
2023-04-09T03:15:51.907Z,36.08
2023-04-09T03:17:12.982Z,40.85
2023-04-09T03:18:33.707Z,37.22
2023-04-09T03:19:55.914Z,38.63
2023-04-09T03:21:16.604Z,40.15
2023-04-09T03:22:37.787Z,38.95
2023-04-09T03:25:20.535Z,35.42
2023-04-09T03:26:41.158Z,37.17
2023-04-09T03:28:02.187Z,38.08
2023-04-09T03:29:22.664Z,39.83
2023-04-09T03:30:43.449Z,38.72
2023-04-09T03:32:04.029Z,40.00
2023-04-09T03:33:25.199Z,39.42
2023-04-09T03:34:47.757Z,37.90
2023-04-09T03:36:09.878Z,39.55
2023-04-09T03:37:30.556Z,38.00
2023-04-09T03:38:51.579Z,38.85
2023-04-09T03:40:13.639Z,38.17
2023-04-09T03:41:34.574Z,39.38
2023-04-09T03:42:55.357Z,40.35
2023-04-09T03:44:16.048Z,39.90
2023-04-09T03:45:36.872Z,41.10
2023-04-09T03:46:57.858Z,39.20
2023-04-09T03:48:18.497Z,38.33
2023-04-09T03:49:39.131Z,40.67
2023-04-09T03:50:59.726Z,40.88
2023-04-09T03:52:21.888Z,39.83
2023-04-09T03:53:42.789Z,39.10
2023-04-09T03:55:03.699Z,39.65
2023-04-09T03:56:24.550Z,40.08
2023-04-09T03:57:45.349Z,40.65
2023-04-09T03:59:06.282Z,39.90
2023-04-09T04:00:26.839Z,40.83
2023-04-09T04:01:48.208Z,39.28
2023-04-09T04:03:09.403Z,37.97
2023-04-09T04:04:30.777Z,38.92
2023-04-09T04:05:51.669Z,41.03
2023-04-09T04:07:12.393Z,37.80
2023-04-09T04:08:36.598Z,40.65
2023-04-09T04:09:57.267Z,39.55
2023-04-09T04:11:17.892Z,38.23
2023-04-09T04:12:38.675Z,39.40
2023-04-09T04:14:00.021Z,40.25
2023-04-09T04:15:20.683Z,40.35
2023-04-09T04:16:41.605Z,40.15
2023-04-09T04:18:02.450Z,38.05
2023-04-09T04:19:24.592Z,36.65
2023-04-09T04:20:45.241Z,39.08
2023-04-09T04:22:06.265Z,35.83
2023-04-09T04:23:26.924Z,37.70
2023-04-09T04:24:49.472Z,37.55
2023-04-09T04:26:10.698Z,38.42
2023-04-09T04:27:31.220Z,38.72
2023-04-09T04:28:52.204Z,41.50
2023-04-09T04:30:13.251Z,38.15
2023-04-09T04:31:34.715Z,39.28
2023-04-09T04:32:55.495Z,38.70
2023-04-09T04:34:17.188Z,39.92
2023-04-09T04:35:38.268Z,40.28
2023-04-09T04:36:58.914Z,42.65
2023-04-09T04:38:19.371Z,38.55
2023-04-09T04:39:39.861Z,38.97
2023-04-09T04:41:02.652Z,38.08
2023-04-09T04:42:23.272Z,36.75
2023-04-09T04:43:44.081Z,39.22
2023-04-09T04:45:06.934Z,39.92
2023-04-09T04:46:27.928Z,39.10
2023-04-09T04:47:48.422Z,40.67
2023-04-09T04:49:08.902Z,40.53
2023-04-09T04:50:29.367Z,38.78
2023-04-09T04:51:50.488Z,40.25
2023-04-09T04:53:11.175Z,38.53
2023-04-09T04:54:31.743Z,38.67
2023-04-09T04:55:52.842Z,37.05
2023-04-09T04:57:15.531Z,36.80
2023-04-09T04:58:36.162Z,38.05
2023-04-09T04:59:58.203Z,38.03
2023-04-09T05:01:19.289Z,38.40
2023-04-09T05:02:40.286Z,37.47
2023-04-09T05:04:01.278Z,39.47
2023-04-09T05:05:23.552Z,40.63
2023-04-09T05:06:45.108Z,37.72
2023-04-09T05:08:06.931Z,38.05
2023-04-09T05:09:35.102Z,36.38
2023-04-09T05:10:56.358Z,36.97
2023-04-09T05:12:18.299Z,37.30
2023-04-09T05:13:39.284Z,37.75
2023-04-09T05:15:00.132Z,37.78
2023-04-09T05:16:21.444Z,37.33
2023-04-09T05:17:43.077Z,38.85
2023-04-09T05:19:03.585Z,37.95
2023-04-09T05:20:24.409Z,36.60
2023-04-09T05:21:47.276Z,36.65
2023-04-09T05:23:08.387Z,37.90
2023-04-09T05:24:29.078Z,38.25
2023-04-09T05:25:49.848Z,38.70
2023-04-09T05:27:10.680Z,38.58
2023-04-09T05:28:33.136Z,38.50
2023-04-09T05:29:54.358Z,38.45
2023-04-09T05:31:14.931Z,38.95
2023-04-09T05:32:35.697Z,37.85
2023-04-09T05:33:56.354Z,39.13
2023-04-09T05:35:16.970Z,38.13
2023-04-09T05:36:37.376Z,38.42
2023-04-09T05:37:58.274Z,39.20
2023-04-09T05:39:19.100Z,39.78
2023-04-09T05:40:40.121Z,39.13
2023-04-09T05:42:04.476Z,38.55
2023-04-09T05:43:25.240Z,38.00
2023-04-09T05:44:47.414Z,39.53
2023-04-09T05:46:08.180Z,37.78
2023-04-09T05:47:28.777Z,36.47
2023-04-09T05:48:50.011Z,38.50
2023-04-09T05:50:10.956Z,35.38
2023-04-09T05:51:31.760Z,35.58
2023-04-09T05:52:52.510Z,36.28
2023-04-09T05:54:13.312Z,37.23
2023-04-09T05:55:34.323Z,36.97
2023-04-09T05:56:55.111Z,37.58
2023-04-09T05:58:16.478Z,35.97
2023-04-09T05:59:37.156Z,36.88
2023-04-09T06:00:59.225Z,38.35
2023-04-09T06:02:20.263Z,36.70
2023-04-09T06:03:41.327Z,37.20
2023-04-09T06:05:02.449Z,37.80
2023-04-09T06:06:22.985Z,37.47
2023-04-09T06:07:43.442Z,37.42
2023-04-09T06:09:04.233Z,39.40
2023-04-09T06:10:24.770Z,40.05
2023-04-09T06:11:45.634Z,37.47
2023-04-09T06:13:06.492Z,37.13
2023-04-09T06:14:27.403Z,38.88
2023-04-09T06:15:48.408Z,40.25
2023-04-09T06:17:10.720Z,38.58
2023-04-09T06:18:31.478Z,37.67
2023-04-09T06:19:52.299Z,35.55
2023-04-09T06:21:13.258Z,38.38
2023-04-09T06:22:34.169Z,39.30
2023-04-09T06:23:55.035Z,38.20
2023-04-09T06:26:37.490Z,37.30
2023-04-09T06:27:58.633Z,37.75
2023-04-09T06:29:19.589Z,40.30
2023-04-09T06:30:40.663Z,39.75
2023-04-09T06:32:01.924Z,38.72
2023-04-09T06:33:24.484Z,40.88
2023-04-09T06:34:49.132Z,41.22
2023-04-09T06:36:11.225Z,38.70
2023-04-09T06:37:35.180Z,40.72
2023-04-09T06:38:57.282Z,42.55
2023-04-09T06:40:19.131Z,38.13
2023-04-09T06:41:40.822Z,40.10
2023-04-09T06:43:01.620Z,43.28
2023-04-09T06:44:22.567Z,42.90
2023-04-09T06:45:43.395Z,42.30
2023-04-09T06:47:04.272Z,40.97
2023-04-09T06:48:26.311Z,41.85
2023-04-09T06:49:47.400Z,44.72
2023-04-09T06:51:08.171Z,41.00
2023-04-09T06:52:28.855Z,41.15
2023-04-09T06:53:51.201Z,43.83
2023-04-09T06:55:12.849Z,43.00
2023-04-09T06:56:35.117Z,42.75
2023-04-09T06:57:56.173Z,43.30
2023-04-09T06:59:18.004Z,43.80
2023-04-09T07:00:39.842Z,43.35
2023-04-09T07:02:00.985Z,42.60
2023-04-09T07:03:22.090Z,44.53
2023-04-09T07:04:47.005Z,41.72
2023-04-09T07:06:07.944Z,44.58
2023-04-09T07:07:29.110Z,46.95
2023-04-09T07:08:49.610Z,44.35
2023-04-09T07:10:10.695Z,44.03
2023-04-09T07:11:31.347Z,45.67
2023-04-09T07:12:51.891Z,44.33
2023-04-09T07:14:12.533Z,44.88
2023-04-09T07:15:33.179Z,46.78
2023-04-09T07:16:54.019Z,48.53
2023-04-09T07:18:14.648Z,47.17
2023-04-09T07:19:35.225Z,47.03
2023-04-09T07:20:57.378Z,49.50
2023-04-09T07:22:18.341Z,50.50
2023-04-09T07:23:38.972Z,48.88
2023-04-09T07:24:59.796Z,50.67
2023-04-09T07:26:20.633Z,53.78
2023-04-09T07:27:41.643Z,51.35
2023-04-09T07:29:02.272Z,50.93
2023-04-09T07:30:23.391Z,52.58
2023-04-09T07:31:44.076Z,50.55
2023-04-09T07:33:05.530Z,50.60
2023-04-09T07:34:26.084Z,50.90
2023-04-09T07:35:46.751Z,52.65
2023-04-09T07:37:08.749Z,53.73
2023-04-09T07:38:29.900Z,56.20
2023-04-09T07:39:50.936Z,55.35
2023-04-09T07:41:11.756Z,53.30
2023-04-09T07:42:32.102Z,57.53
2023-04-09T07:43:52.934Z,57.40
2023-04-09T07:45:13.835Z,58.05
2023-04-09T07:46:34.559Z,59.08
2023-04-09T07:47:55.573Z,59.08
2023-04-09T07:49:16.258Z,59.73
2023-04-09T07:50:36.942Z,60.23
2023-04-09T07:51:58.550Z,60.03
2023-04-09T07:53:20.712Z,60.78
2023-04-09T07:54:41.741Z,60.25
2023-04-09T07:56:02.080Z,57.67
2023-04-09T07:57:22.637Z,56.50
2023-04-09T07:58:43.540Z,58.95
2023-04-09T08:00:05.673Z,59.55
2023-04-09T08:01:26.175Z,61.03
2023-04-09T08:02:46.949Z,59.80
2023-04-09T08:04:07.748Z,57.70
2023-04-09T08:05:28.474Z,55.80
2023-04-09T08:06:49.336Z,59.40
2023-04-09T08:08:10.081Z,61.05
2023-04-09T08:09:32.700Z,60.05
2023-04-09T08:10:54.271Z,62.03
2023-04-09T08:12:15.680Z,57.22
2023-04-09T08:13:36.596Z,60.42
2023-04-09T08:14:57.412Z,61.30
2023-04-09T08:16:18.420Z,62.83
2023-04-09T08:17:39.178Z,60.35
2023-04-09T08:18:59.844Z,61.85
2023-04-09T08:20:20.860Z,57.60
2023-04-09T08:21:41.945Z,57.05
2023-04-09T08:23:02.971Z,57.08
2023-04-09T08:24:24.178Z,61.60
2023-04-09T08:25:46.380Z,57.78
2023-04-09T08:27:07.040Z,60.97
2023-04-09T08:28:27.725Z,59.38
2023-04-09T08:29:48.998Z,56.40
2023-04-09T08:31:09.924Z,58.33
2023-04-09T08:32:30.805Z,60.83
2023-04-09T08:33:51.279Z,61.08
2023-04-09T08:35:12.285Z,60.35
2023-04-09T08:36:33.310Z,60.90
2023-04-09T08:37:53.726Z,60.90
2023-04-09T08:39:16.209Z,59.50
2023-04-09T08:40:37.352Z,60.08
2023-04-09T08:42:00.080Z,57.88
2023-04-09T08:43:23.676Z,61.22
2023-04-09T08:44:46.527Z,60.25
2023-04-09T08:46:07.360Z,57.45
2023-04-09T08:47:28.598Z,61.17
2023-04-09T08:48:50.945Z,58.85
2023-04-09T08:50:11.627Z,57.60
2023-04-09T08:51:32.372Z,58.60
2023-04-09T08:52:53.817Z,63.35
2023-04-09T08:54:15.919Z,60.97
2023-04-09T08:55:36.944Z,60.08
2023-04-09T08:56:59.458Z,56.60
2023-04-09T08:58:20.183Z,57.25
2023-04-09T08:59:41.598Z,59.28
2023-04-09T09:01:02.591Z,57.95
2023-04-09T09:02:25.210Z,59.95
2023-04-09T09:03:54.799Z,60.30
2023-04-09T09:05:15.838Z,60.58
2023-04-09T09:06:38.319Z,57.83
2023-04-09T09:07:59.490Z,56.53
2023-04-09T09:09:20.417Z,57.30
2023-04-09T09:10:42.305Z,57.90
2023-04-09T09:12:04.194Z,58.60
2023-04-09T09:13:25.698Z,58.38
2023-04-09T09:14:46.428Z,57.60
2023-04-09T09:16:14.242Z,57.50
2023-04-09T09:17:34.951Z,57.50
2023-04-09T09:18:56.336Z,59.03
2023-04-09T09:20:20.708Z,57.15
2023-04-09T09:21:41.201Z,56.50
2023-04-09T09:23:02.527Z,55.30
2023-04-09T09:24:23.353Z,56.85
2023-04-09T09:25:44.050Z,56.35
2023-04-09T09:27:06.065Z,55.28
2023-04-09T09:28:35.137Z,57.03
2023-04-09T09:29:56.183Z,59.03
2023-04-09T09:31:20.327Z,64.20
2023-04-09T09:32:40.829Z,65.03
2023-04-09T09:34:08.884Z,66.78
2023-04-09T09:35:29.496Z,68.60
2023-04-09T09:36:50.536Z,68.60
2023-04-09T09:38:11.743Z,67.65
2023-04-09T09:39:43.268Z,66.72
2023-04-09T09:41:17.161Z,64.45
2023-04-09T09:42:55.194Z,64.63
2023-04-09T09:44:31.380Z,68.30
2023-04-09T09:45:52.815Z,66.55
2023-04-09T09:47:14.831Z,67.13
2023-04-09T09:48:35.897Z,67.20
2023-04-09T09:49:56.402Z,65.47
2023-04-09T09:51:17.153Z,65.57
2023-04-09T09:52:39.176Z,68.32
2023-04-09T09:54:00.787Z,63.67
2023-04-09T09:55:23.758Z,66.25
2023-04-09T09:56:45.068Z,64.72
2023-04-09T09:58:11.180Z,65.20
2023-04-09T09:59:34.715Z,67.40
2023-04-09T10:00:56.132Z,65.80
2023-04-09T10:03:40.913Z,60.85
2023-04-09T10:05:02.926Z,63.17
2023-04-09T10:06:23.921Z,60.17
2023-04-09T10:07:44.561Z,65.28
2023-04-09T10:09:05.427Z,64.20
2023-04-09T10:10:26.315Z,64.70
2023-04-09T10:11:46.722Z,62.03
2023-04-09T10:13:10.304Z,63.38
2023-04-09T10:14:31.606Z,61.10
2023-04-09T10:15:52.590Z,63.95
2023-04-09T10:17:13.758Z,60.13
2023-04-09T10:18:34.140Z,62.55
2023-04-09T10:19:59.535Z,63.80
2023-04-09T10:21:29.622Z,65.90
2023-04-09T10:22:50.832Z,65.13
2023-04-09T10:24:11.565Z,64.60
2023-04-09T10:25:32.670Z,64.63
2023-04-09T10:26:54.765Z,63.13
2023-04-09T10:28:18.238Z,59.28
2023-04-09T10:29:43.917Z,63.60
2023-04-09T10:31:05.296Z,63.75
2023-04-09T10:32:26.160Z,65.05
2023-04-09T10:33:46.953Z,64.90
2023-04-09T10:35:09.690Z,64.07
2023-04-09T10:36:31.108Z,61.15
2023-04-09T10:39:14.955Z,60.67
2023-04-09T10:40:36.064Z,59.33
2023-04-09T10:41:56.822Z,61.78
2023-04-09T10:43:19.743Z,59.95
2023-04-09T10:44:40.992Z,58.72
2023-04-09T10:46:02.013Z,59.15
2023-04-09T10:47:32.218Z,59.93
2023-04-09T10:49:08.925Z,60.17
2023-04-09T10:50:32.912Z,59.67
2023-04-09T10:51:54.749Z,60.13
2023-04-09T10:53:25.336Z,58.85
2023-04-09T10:54:46.596Z,58.63
2023-04-09T10:57:33.294Z,57.60
2023-04-09T10:58:55.483Z,57.20
2023-04-09T11:00:15.922Z,58.95
2023-04-09T11:01:36.643Z,58.47
2023-04-09T11:03:25.161Z,58.90
2023-04-09T11:05:00.506Z,59.60
2023-04-09T11:06:22.554Z,59.92
2023-04-09T11:07:49.847Z,58.65
2023-04-09T11:09:12.901Z,56.17
2023-04-09T11:10:34.225Z,58.03
2023-04-09T11:11:57.940Z,54.22
2023-04-09T11:13:18.769Z,54.63
2023-04-09T11:14:40.524Z,53.92
2023-04-09T11:16:01.730Z,53.85
2023-04-09T11:17:22.731Z,55.20
2023-04-09T11:18:43.481Z,52.17
2023-04-09T11:20:04.849Z,54.93
2023-04-09T11:21:27.505Z,53.78
2023-04-09T11:22:48.892Z,50.22
2023-04-09T11:24:09.357Z,52.45
2023-04-09T11:25:31.496Z,52.53
2023-04-09T11:26:52.441Z,50.05
2023-04-09T11:28:14.355Z,50.83
2023-04-09T11:29:35.150Z,50.38
2023-04-09T11:30:57.245Z,50.30
2023-04-09T11:32:18.952Z,50.25
2023-04-09T11:33:39.650Z,50.65
2023-04-09T11:35:00.544Z,49.10
2023-04-09T11:36:21.913Z,50.88
2023-04-09T11:37:43.762Z,51.97
2023-04-09T11:39:05.113Z,51.60
2023-04-09T11:40:27.245Z,50.28
2023-04-09T11:41:48.229Z,48.53
2023-04-09T11:43:09.004Z,49.63
2023-04-09T11:44:30.181Z,51.83
2023-04-09T11:45:50.865Z,51.83
2023-04-09T11:47:13.726Z,48.88
2023-04-09T11:48:34.810Z,49.35
2023-04-09T11:49:55.661Z,49.63
2023-04-09T11:51:16.543Z,49.92
2023-04-09T11:52:37.738Z,48.50
2023-04-09T11:54:02.250Z,47.33
2023-04-09T11:55:24.320Z,49.50
2023-04-09T11:56:47.647Z,48.70
2023-04-09T11:58:12.697Z,48.38
2023-04-09T11:59:38.287Z,48.90
2023-04-09T12:00:59.450Z,47.17
2023-04-09T12:02:21.669Z,46.78
2023-04-09T12:03:42.383Z,46.33
2023-04-09T12:05:04.184Z,45.67
2023-04-09T12:06:26.142Z,44.95
2023-04-09T12:07:55.363Z,48.28
2023-04-09T12:09:17.336Z,46.85
2023-04-09T12:10:38.782Z,45.00
2023-04-09T12:13:22.961Z,44.40
2023-04-09T12:14:46.118Z,47.45
2023-04-09T12:16:06.515Z,46.85
2023-04-09T12:17:28.748Z,47.47
2023-04-09T12:18:49.202Z,44.65
2023-04-09T12:20:10.635Z,45.35
2023-04-09T12:21:46.180Z,45.25
2023-04-09T12:23:08.279Z,44.42
2023-04-09T12:24:29.227Z,44.72
2023-04-09T12:25:50.027Z,43.28
2023-04-09T12:27:10.857Z,46.50
2023-04-09T12:28:31.850Z,41.88
2023-04-09T12:29:53.107Z,40.92
2023-04-09T12:31:14.013Z,41.47
2023-04-09T12:32:36.061Z,41.75
2023-04-09T12:33:56.610Z,41.25
2023-04-09T12:35:17.311Z,40.65
2023-04-09T12:36:38.700Z,41.80
2023-04-09T12:37:59.396Z,40.92
2023-04-09T12:39:19.791Z,41.92
2023-04-09T12:40:40.344Z,40.55
2023-04-09T12:42:00.892Z,41.57
2023-04-09T12:43:21.610Z,40.85
2023-04-09T12:44:42.381Z,40.92
2023-04-09T12:46:03.067Z,39.83
2023-04-09T12:47:23.714Z,40.55
2023-04-09T12:48:45.548Z,39.97
2023-04-09T12:50:07.555Z,36.72
2023-04-09T12:51:28.266Z,37.70
2023-04-09T12:52:48.899Z,35.50
2023-04-09T12:54:09.665Z,35.05
2023-04-09T12:55:30.169Z,34.63
2023-04-09T12:56:50.759Z,34.72
2023-04-09T12:58:11.408Z,37.47
2023-04-09T12:59:32.146Z,37.70
2023-04-09T13:00:52.895Z,36.75
2023-04-09T13:02:13.644Z,35.90
2023-04-09T13:03:34.396Z,36.22
2023-04-09T13:04:56.555Z,35.55
2023-04-09T13:06:16.990Z,34.08
2023-04-09T13:07:43.138Z,34.13
2023-04-09T13:09:04.682Z,35.05
2023-04-09T13:10:25.418Z,32.03
2023-04-09T13:11:46.169Z,33.42
2023-04-09T13:13:07.030Z,32.67
2023-04-09T13:14:27.800Z,31.88
2023-04-09T13:15:48.213Z,32.15
2023-04-09T13:17:08.710Z,32.28
2023-04-09T13:18:29.196Z,30.65
2023-04-09T13:19:50.272Z,30.08
2023-04-09T13:21:12.326Z,30.02
2023-04-09T13:22:33.065Z,29.90
2023-04-09T13:23:53.672Z,29.10
2023-04-09T13:25:15.013Z,27.77
2023-04-09T13:26:35.461Z,28.55
2023-04-09T13:27:56.258Z,27.52
2023-04-09T13:29:16.818Z,26.93
2023-04-09T13:30:37.495Z,27.70
2023-04-09T13:31:58.727Z,29.57
2023-04-09T13:33:19.165Z,30.02
2023-04-09T13:34:39.948Z,29.00
2023-04-09T13:36:00.323Z,27.45
2023-04-09T13:37:22.303Z,27.40
2023-04-09T13:38:42.916Z,28.30
2023-04-09T13:40:03.794Z,28.67
2023-04-09T13:41:24.511Z,27.45
2023-04-09T13:42:44.846Z,27.80
2023-04-09T13:44:05.511Z,27.40
2023-04-09T13:45:27.135Z,26.60
2023-04-09T13:48:07.968Z,26.40
2023-04-09T13:49:28.591Z,27.23
2023-04-09T13:50:49.193Z,27.02
2023-04-09T13:52:10.694Z,26.70
2023-04-09T13:53:32.500Z,26.83
2023-04-09T13:54:53.082Z,26.35
2023-04-09T13:56:14.338Z,25.08
2023-04-09T13:57:35.006Z,27.38
2023-04-09T13:58:55.592Z,25.27
2023-04-09T14:00:16.006Z,26.15
2023-04-09T14:01:36.589Z,26.70
2023-04-09T14:02:57.389Z,24.73
2023-04-09T14:04:17.881Z,26.85
2023-04-09T14:05:38.372Z,25.95
2023-04-09T14:06:58.736Z,25.70
2023-04-09T14:08:19.570Z,25.27
2023-04-09T14:09:41.601Z,24.70
2023-04-09T14:11:01.995Z,23.38
2023-04-09T14:12:22.267Z,24.70
2023-04-09T14:13:45.250Z,24.08
2023-04-09T14:15:11.227Z,24.23
2023-04-09T14:16:36.907Z,23.88
2023-04-09T14:17:58.400Z,24.40
2023-04-09T14:19:19.542Z,25.35
2023-04-09T14:20:40.518Z,22.23
2023-04-09T14:22:01.272Z,23.50
2023-04-09T14:23:22.512Z,23.13
2023-04-09T14:24:45.766Z,23.33
2023-04-09T14:26:06.790Z,22.48
2023-04-09T14:27:27.563Z,21.42
2023-04-09T14:28:48.529Z,29.40
2023-04-09T14:30:10.680Z,23.23
2023-04-09T14:31:31.335Z,22.38
2023-04-09T14:32:52.248Z,22.33
2023-04-09T14:34:13.249Z,21.33
2023-04-09T14:35:34.406Z,22.20
2023-04-09T14:36:55.447Z,25.08
2023-04-09T14:38:16.527Z,22.20
2023-04-09T14:39:38.461Z,20.33
2023-04-09T14:41:00.627Z,20.90
2023-04-09T14:42:23.208Z,21.35
2023-04-09T14:43:44.089Z,21.38
2023-04-09T14:45:05.544Z,19.63
2023-04-09T14:46:26.472Z,19.85
2023-04-09T14:47:48.289Z,20.77
2023-04-09T14:49:09.699Z,20.52
2023-04-09T14:50:31.266Z,19.60
2023-04-09T14:51:51.964Z,20.40
2023-04-09T14:53:13.017Z,19.73
2023-04-09T14:54:33.604Z,20.80
2023-04-09T14:55:54.803Z,21.40
2023-04-09T14:57:16.944Z,20.02
2023-04-09T14:58:37.746Z,19.67
2023-04-09T14:59:58.592Z,19.73
2023-04-09T15:01:19.437Z,18.88
2023-04-09T15:02:40.132Z,19.13
2023-04-09T15:04:00.927Z,18.70
2023-04-09T15:05:21.807Z,19.02
2023-04-09T15:06:42.226Z,18.93
2023-04-09T15:08:02.881Z,18.98
2023-04-09T15:09:23.757Z,18.95
2023-04-09T15:10:44.472Z,18.83
2023-04-09T15:12:05.540Z,18.80
2023-04-09T15:13:28.332Z,18.85
2023-04-09T15:14:49.313Z,18.27
2023-04-09T15:16:10.344Z,17.13
2023-04-09T15:17:30.929Z,17.55
2023-04-09T15:18:52.318Z,18.13
2023-04-09T15:20:13.959Z,19.00
2023-04-09T15:21:34.776Z,19.73
2023-04-09T15:22:55.748Z,18.42
2023-04-09T15:24:16.931Z,19.40
2023-04-09T15:25:37.777Z,18.10
2023-04-09T15:26:58.707Z,18.30
2023-04-09T15:28:19.566Z,18.20
2023-04-09T15:29:41.479Z,17.48
2023-04-09T15:31:02.120Z,17.25
2023-04-09T15:32:23.443Z,17.50
2023-04-09T15:33:44.044Z,16.95
2023-04-09T15:35:05.548Z,16.40
2023-04-09T15:36:26.634Z,17.15
2023-04-09T15:37:48.173Z,16.88
2023-04-09T15:39:08.837Z,17.40
2023-04-09T15:40:29.376Z,17.05
2023-04-09T15:41:50.517Z,16.45
2023-04-09T15:43:11.255Z,16.42
2023-04-09T15:44:32.070Z,15.65
2023-04-09T15:45:54.266Z,15.43
2023-04-09T15:47:14.822Z,15.90
2023-04-09T15:48:35.769Z,16.55
2023-04-09T15:49:56.649Z,16.30
2023-04-09T15:51:17.554Z,16.85
2023-04-09T15:52:38.549Z,17.42
2023-04-09T15:53:59.124Z,16.80
2023-04-09T15:55:20.084Z,17.23
2023-04-09T15:56:40.744Z,16.55
2023-04-09T15:58:01.568Z,17.88
2023-04-09T15:59:22.194Z,17.42
2023-04-09T16:00:43.127Z,16.98
2023-04-09T16:02:05.783Z,18.95
2023-04-09T16:03:26.531Z,20.42
2023-04-09T16:04:47.531Z,17.38
2023-04-09T16:06:09.420Z,18.13
2023-04-09T16:07:30.295Z,16.05
2023-04-09T16:08:51.361Z,17.33
2023-04-09T16:10:12.882Z,19.35
2023-04-09T16:11:33.557Z,17.77
2023-04-09T16:12:54.277Z,18.48
2023-04-09T16:14:14.621Z,17.57
2023-04-09T16:15:35.466Z,17.40
2023-04-09T16:16:56.403Z,16.90
2023-04-09T16:18:18.691Z,16.80
2023-04-09T16:19:39.382Z,17.25
2023-04-09T16:21:00.212Z,18.20
2023-04-09T16:22:20.780Z,18.13
2023-04-09T16:23:41.423Z,16.98
2023-04-09T16:25:02.275Z,15.93
2023-04-09T16:26:23.108Z,17.27
2023-04-09T16:27:43.639Z,18.60
2023-04-09T16:29:04.515Z,18.88
2023-04-09T16:30:25.364Z,17.63
2023-04-09T16:31:46.119Z,17.48
2023-04-09T16:33:06.833Z,16.92
2023-04-09T16:34:29.132Z,17.58
2023-04-09T16:35:49.926Z,18.70
2023-04-09T16:37:10.622Z,16.95
2023-04-09T16:38:31.456Z,17.05
2023-04-09T16:39:52.500Z,17.50
2023-04-09T16:41:13.073Z,18.05
2023-04-09T16:42:33.709Z,17.70
2023-04-09T16:43:54.541Z,18.67
2023-04-09T16:45:15.336Z,17.98
2023-04-09T16:46:36.180Z,19.88
2023-04-09T16:47:57.248Z,20.08
2023-04-09T16:49:17.786Z,20.05
2023-04-09T16:50:40.511Z,20.00
2023-04-09T16:52:01.020Z,21.55
2023-04-09T16:53:21.688Z,21.08
2023-04-09T16:54:42.667Z,20.33
2023-04-09T16:56:03.692Z,19.73
2023-04-09T16:57:24.157Z,18.00
2023-04-09T16:58:45.915Z,17.45
2023-04-09T17:00:07.653Z,17.83
2023-04-09T17:01:28.254Z,16.48
2023-04-09T17:02:48.965Z,17.83
2023-04-09T17:04:10.048Z,16.35
2023-04-09T17:05:30.797Z,16.83
2023-04-09T17:06:52.500Z,16.60
2023-04-09T17:08:13.301Z,16.30
2023-04-09T17:09:34.225Z,16.20
2023-04-09T17:10:55.107Z,16.83
2023-04-09T17:12:16.369Z,16.52
2023-04-09T17:13:37.062Z,17.05
2023-04-09T17:14:58.014Z,16.80
2023-04-09T17:16:18.752Z,16.50
2023-04-09T17:17:39.157Z,18.02
2023-04-09T17:18:59.991Z,17.58
2023-04-09T17:20:21.546Z,17.30
2023-04-09T17:21:42.154Z,18.42
2023-04-09T17:23:04.371Z,18.42
2023-04-09T17:24:25.266Z,18.83
2023-04-09T17:25:45.977Z,18.73
2023-04-09T17:27:06.725Z,17.07
2023-04-09T17:28:27.239Z,20.08
2023-04-09T17:29:48.138Z,19.70
2023-04-09T17:31:12.538Z,17.75
2023-04-09T17:32:33.508Z,17.38
2023-04-09T17:33:53.940Z,17.30
2023-04-09T17:35:14.727Z,16.95
2023-04-09T17:36:35.205Z,16.55
2023-04-09T17:37:56.139Z,16.35
2023-04-09T17:39:18.325Z,17.23
2023-04-09T17:40:39.200Z,16.95
2023-04-09T17:42:00.032Z,16.85
2023-04-09T17:43:20.683Z,17.77
2023-04-09T17:44:42.114Z,17.63